Ευχαριστούμε που συμβάλλετε στη διατήρηση της σελίδας μας.

Thank you for your donations, it really helps to maintain the page.


Meteo Stats And More









Fire Weather Index (FWI)

Kastelokampos Rion more information Kastelokampos Rion


Romanos Cam more information Romanos Cam


Thunder radar more information blitzortung!


Rain radar more information rain snow radar


Visit our other weather sites:

Meteopatras.Eu in
Euweather NetworkMeteopatras.Eu in Euweather Network

Weather CloudWeather Cloud

PWS WeatherPWS Weather

Awekas NetWeather data from station Patra-Ketx

WunderGroundWeather data from station Patra-Ketx




Provided and Supervised by : Moulas Andreas

 Patra, Greece - Latitude : 38°14'21" N - Longitude : 21°45'5" E - Altitude : 56m

Nearby METAR Reports

   
LGRX - Araxos
Updated: 22-07-2019 18:20
Few Clouds  
Few Clouds  
   Wind: WNW 9.3 km/h
Wind: WNW 9.3 km/h
Temperature: 34°C
Dew Point: 14°C
Humidity: 30%
Barometer: 1014 hPa
Clouds: Few Clouds
Visibility: More than 10 km
Cloud details: Few Clouds 3000 ft
LGRX 221520Z 30005KT 9999 FEW030 34/14 Q1014
LGAD - Andravida
Updated: 22-07-2019 18:20
Few Clouds  
Few Clouds  
   Wind: WNW 18.5 km/h
Wind: WNW 18.5 km/h
Temperature: 31°C
Heat Index: 31°C
Dew Point: 17°C
Humidity: 43%
Barometer: 1014 hPa
Clouds: Few Clouds
Visibility: More than 10 km
Cloud details: Few Clouds 2500 ft
LGAD 221520Z 29010KT 9999 FEW025 31/17 Q1014
LGZA - Zakinthos
Updated: 22-07-2019 18:20
Clear  
Clear  
   Wind: NNW 13 km/h
Wind: NNW 13 km/h
Temperature: 34°C
Dew Point: 16°C
Humidity: 34%
Barometer: 1014 hPa
Visibility: More than 10 km
Cloud details: Clear
LGZA 221520Z 34007KT CAVOK 34/16 Q1014
LGKF - Kefallinia
Updated: 22-07-2019 17:50
Few Clouds  
Few Clouds  
   Wind: NW 22.2 km/h<br />Gust to 22.2 km/h
Wind: NW 22.2 km/h
Gust to 22.2 km/h
Temperature: 32°C
Heat Index: 34°C
Dew Point: 20°C
Humidity: 49%
Barometer: 1014 hPa
Clouds: Few Clouds
Visibility: More than 10 km
Cloud details: Few Clouds 1600 ft
LGKF 221450Z 31012G23KT 9999 FEW016 32/20 Q1014
LGPZ - Preveza
Updated: 22-07-2019 18:20
Few Clouds  
Few Clouds  
   Wind: WSW 16.7 km/h
Wind: WSW 16.7 km/h
Temperature: 29°C
Heat Index: 31°C
Dew Point: 21°C
Humidity: 62%
Barometer: 1015 hPa
Clouds: Few Clouds
Visibility: More than 10 km
Cloud details: Few Clouds 3000 ft
LGPZ 221520Z 24009KT 9999 FEW030 29/21 Q1015
LGKL - Kalamata
Updated: 22-07-2019 18:20
Few Clouds  
Few Clouds  
   Wind: Calm
Wind: Calm
Temperature: 31°C
Dew Point: 15°C
Humidity: 38%
Barometer: 1013 hPa
Clouds: Few Clouds
Visibility: More than 10 km
Cloud details: Few Clouds 3000 ft
LGKL 221520Z 00000KT 9999 FEW030 31/15 Q1013
LGKR - Kerkyra
Updated: 22-07-2019 18:50
Few Clouds  
Few Clouds  
   Wind: WNW 14.8 km/h
Wind: WNW 14.8 km/h
Temperature: 35°C
Dew Point: 18°C
Humidity: 36%
Barometer: 1014 hPa
Clouds: Few Clouds
Visibility: More than 10 km
Cloud details: Few Clouds 4000 ft
LGKR 221550Z 29008KT 9999 FEW040 35/18 Q1014 NOSIG
LGIO - Iwannina
Updated: 22-07-2019 18:50
Partly Cloudy  
Partly Cloudy  
   Wind: varies Calm
Wind: varies Calm
Temperature: 34°C
Dew Point: 14°C
Humidity: 30%
Barometer: 1016 hPa
Clouds: Partly Cloudy
Visibility: More than 10 km
Cloud details: Partly Cloudy 3500 ft
LGIO 221550Z /////KT 9999 SCT035 34/14 Q1016
LGPZ - Leykada
Updated: 22-07-2019 18:20
Few Clouds  
Few Clouds  
   Wind: WSW 16.7 km/h
Wind: WSW 16.7 km/h
Temperature: 29°C
Heat Index: 31°C
Dew Point: 21°C
Humidity: 62%
Barometer: 1015 hPa
Clouds: Few Clouds
Visibility: More than 10 km
Cloud details: Few Clouds 3000 ft
LGPZ 221520Z 24009KT 9999 FEW030 29/21 Q1015
LGEL - Elefsina
Updated: 22-07-2019 18:50
Clear  
Clear  
   Wind: North 20.4 km/h<br />Gust to 20.4 km/h
Wind: North 20.4 km/h
Gust to 20.4 km/h
Temperature: 33°C
Dew Point: 11°C
Humidity: 26%
Barometer: 1013 hPa
Visibility: More than 10 km
Cloud details: Clear
LGEL 221550Z 01011G21KT CAVOK 33/11 Q1013
LGKC - Kythira
Updated: 22-07-2019 18:50
Clear  
Clear  
   Wind: NNE 22.2 km/h
Wind: NNE 22.2 km/h
Temperature: 28°C
Heat Index: 29°C
Dew Point: 18°C
Humidity: 55%
Barometer: 1015 hPa
Visibility: More than 10 km
Cloud details: Clear
LGKC 221550Z 03012KT CAVOK 28/18 Q1015
LGIR - Hraklio
Updated: 22-07-2019 18:50
Clear  
Clear  
   Wind: WNW 35.2 km/h
Wind: WNW 35.2 km/h
Temperature: 28°C
Dew Point: -16°C
Humidity: 5%
Barometer: 1012 hPa
Visibility: More than 10 km
Cloud details: Clear
LGIR 221550Z 30019KT CAVOK 28/M16 Q1012 NOSIG

Script developed by  Saratoga-weather.org Adapted for the template by  Weerstation Leuven

You find our weather info also at:

European Weather Network

WeatherCloud

Weather Underground

Hellas Meteo Network

AWEKAS

HAMweather, WeatherForYou, PWS Weather

MeteoPatras.Eu